createdAt,value
2019-02-21T00:01:32.940Z,9.70
2019-02-21T00:04:09.941Z,9.33
2019-02-21T00:06:44.230Z,9.83
2019-02-21T00:09:18.417Z,9.68
2019-02-21T00:11:52.840Z,9.98
2019-02-21T00:14:27.145Z,9.63
2019-02-21T00:17:01.443Z,10.50
2019-02-21T00:19:35.729Z,9.75
2019-02-21T00:22:10.236Z,9.93
2019-02-21T00:24:44.711Z,9.83
2019-02-21T00:27:19.269Z,10.28
2019-02-21T00:29:53.544Z,10.38
2019-02-21T00:32:28.016Z,10.30
2019-02-21T00:35:02.281Z,10.70
2019-02-21T00:37:36.360Z,11.80
2019-02-21T00:40:10.823Z,11.22
2019-02-21T00:42:45.088Z,11.18
2019-02-21T00:45:19.415Z,11.45
2019-02-21T00:47:53.577Z,11.45
2019-02-21T00:50:27.879Z,10.93
2019-02-21T00:53:02.124Z,11.15
2019-02-21T00:55:36.509Z,11.33
2019-02-21T00:58:10.934Z,10.60
2019-02-21T01:00:46.789Z,10.58
2019-02-21T01:03:22.349Z,11.33
2019-02-21T01:05:56.467Z,11.10
2019-02-21T01:08:30.594Z,10.53
2019-02-21T01:11:06.217Z,10.85
2019-02-21T01:13:40.651Z,11.78
2019-02-21T01:16:15.219Z,11.03
2019-02-21T01:18:49.339Z,10.45
2019-02-21T01:21:24.651Z,11.05
2019-02-21T01:23:58.907Z,11.45
2019-02-21T01:26:32.829Z,11.12
2019-02-21T01:29:07.265Z,10.60
2019-02-21T01:31:41.789Z,11.73
2019-02-21T01:34:15.919Z,11.70
2019-02-21T01:36:50.125Z,11.35
2019-02-21T01:39:24.236Z,12.23
2019-02-21T01:41:58.265Z,13.22
2019-02-21T01:44:33.501Z,14.80
2019-02-21T01:47:07.526Z,14.93
2019-02-21T01:49:41.640Z,15.53
2019-02-21T01:52:15.894Z,16.23
2019-02-21T01:54:50.077Z,16.70
2019-02-21T01:57:24.401Z,17.12
2019-02-21T01:59:58.295Z,18.60
2019-02-21T02:02:33.149Z,19.92
2019-02-21T02:05:07.908Z,20.92
2019-02-21T02:07:42.685Z,21.50
2019-02-21T02:10:16.989Z,22.20
2019-02-21T02:12:52.399Z,22.05
2019-02-21T02:15:26.626Z,23.10
2019-02-21T02:18:00.758Z,24.57
2019-02-21T02:20:34.988Z,23.90
2019-02-21T02:23:09.185Z,25.50
2019-02-21T02:25:43.533Z,27.60
2019-02-21T02:28:18.826Z,27.42
2019-02-21T02:30:53.281Z,32.13
2019-02-21T02:33:27.546Z,35.40
2019-02-21T02:36:01.459Z,36.00
2019-02-21T02:38:35.712Z,35.55
2019-02-21T02:41:10.018Z,35.58
2019-02-21T02:43:44.220Z,35.60
2019-02-21T02:46:19.355Z,36.48
2019-02-21T02:48:54.648Z,36.95
2019-02-21T02:51:28.895Z,39.95
2019-02-21T02:54:03.152Z,39.63
2019-02-21T02:56:37.434Z,39.95
2019-02-21T02:59:11.889Z,41.65
2019-02-21T03:01:46.217Z,47.58
2019-02-21T03:04:20.729Z,43.28
2019-02-21T03:06:56.588Z,47.33
2019-02-21T03:09:30.858Z,44.25
2019-02-21T03:12:05.265Z,44.08
2019-02-21T03:14:39.682Z,50.98
2019-02-21T03:17:14.099Z,54.83
2019-02-21T03:19:48.262Z,80.62
2019-02-21T03:22:22.592Z,79.22
2019-02-21T03:24:57.845Z,79.80
2019-02-21T03:27:32.077Z,76.10
2019-02-21T03:30:06.424Z,75.20
2019-02-21T03:32:40.810Z,76.30
2019-02-21T03:35:15.051Z,73.50
2019-02-21T03:37:49.794Z,72.82
2019-02-21T03:40:23.898Z,74.22
2019-02-21T03:42:58.450Z,76.62
2019-02-21T03:45:32.791Z,78.33
2019-02-21T03:48:07.319Z,78.60
2019-02-21T03:50:43.008Z,77.25
2019-02-21T03:53:20.571Z,83.17
2019-02-21T03:55:55.358Z,87.82
2019-02-21T03:58:29.938Z,91.57
2019-02-21T04:01:04.177Z,99.05
2019-02-21T04:03:39.277Z,102.80
2019-02-21T04:06:13.215Z,107.22
2019-02-21T04:08:47.550Z,115.85
2019-02-21T04:11:21.892Z,117.22
2019-02-21T04:13:56.090Z,128.85
2019-02-21T04:16:30.369Z,127.92
2019-02-21T04:19:04.702Z,132.00
2019-02-21T04:21:38.925Z,131.87
2019-02-21T04:24:14.255Z,133.18
2019-02-21T04:26:48.366Z,130.82
2019-02-21T04:29:22.602Z,132.80
2019-02-21T04:31:56.914Z,134.37
2019-02-21T04:34:31.012Z,131.67
2019-02-21T04:37:05.410Z,131.27
2019-02-21T04:39:39.702Z,131.12
2019-02-21T04:42:13.791Z,132.97
2019-02-21T04:44:48.349Z,132.67
2019-02-21T04:47:22.533Z,131.10
2019-02-21T04:49:56.697Z,130.97
2019-02-21T04:52:31.159Z,131.82
2019-02-21T04:55:05.771Z,130.60
2019-02-21T04:57:40.142Z,131.30
2019-02-21T05:00:15.154Z,129.50
2019-02-21T05:02:49.625Z,129.35
2019-02-21T05:05:24.137Z,125.38
2019-02-21T05:07:58.207Z,129.87
2019-02-21T05:10:32.751Z,126.50
2019-02-21T05:13:07.116Z,130.87
2019-02-21T05:15:41.442Z,125.70
2019-02-21T05:18:16.067Z,123.25
2019-02-21T05:20:51.476Z,119.87
2019-02-21T05:23:26.086Z,116.85
2019-02-21T05:26:00.268Z,116.20
2019-02-21T05:28:35.012Z,114.08
2019-02-21T05:31:31.102Z,113.80
2019-02-21T05:34:13.745Z,109.42
2019-02-21T05:40:03.098Z,105.22
2019-02-21T05:42:51.178Z,107.50
2019-02-21T05:45:32.448Z,105.17
2019-02-21T05:48:23.676Z,105.63
2019-02-21T05:51:29.342Z,102.65
2019-02-21T05:54:18.005Z,100.05
2019-02-21T05:57:13.829Z,100.15
2019-02-21T06:00:18.751Z,98.17
2019-02-21T06:03:10.050Z,98.17
2019-02-21T06:06:01.349Z,96.75
2019-02-21T06:09:00.624Z,98.47
2019-02-21T06:11:41.500Z,95.62
2019-02-21T06:14:43.634Z,95.67
2019-02-21T06:17:36.314Z,93.12
2019-02-21T06:20:29.786Z,94.72
2019-02-21T06:23:34.670Z,95.20
2019-02-21T06:26:16.610Z,93.87
2019-02-21T06:29:04.561Z,94.40
2019-02-21T06:31:38.693Z,92.50
2019-02-21T06:34:49.120Z,95.00
2019-02-21T06:37:23.784Z,93.25
2019-02-21T06:39:58.533Z,91.40
2019-02-21T06:42:33.268Z,94.03
2019-02-21T06:45:08.307Z,91.67
2019-02-21T06:47:43.090Z,91.97
2019-02-21T06:50:26.422Z,90.80
2019-02-21T06:52:55.019Z,90.45
2019-02-21T06:55:30.406Z,90.35
2019-02-21T06:58:06.700Z,90.15
2019-02-21T07:00:42.027Z,89.83
2019-02-21T07:03:17.245Z,87.72
2019-02-21T07:05:52.581Z,87.02
2019-02-21T07:08:27.778Z,84.97
2019-02-21T07:11:06.493Z,82.12
2019-02-21T07:13:40.643Z,83.05
2019-02-21T07:16:17.298Z,82.65
2019-02-21T07:18:52.347Z,81.95
2019-02-21T07:21:28.940Z,82.27
2019-02-21T07:24:04.454Z,81.90
2019-02-21T07:26:39.664Z,78.92
2019-02-21T07:29:15.023Z,79.75
2019-02-21T07:31:50.198Z,79.40
2019-02-21T07:34:25.841Z,77.92
2019-02-21T07:37:02.009Z,76.15
2019-02-21T07:39:37.398Z,75.55
2019-02-21T07:42:13.594Z,74.05
2019-02-21T07:44:48.881Z,72.15
2019-02-21T07:47:24.510Z,72.78
2019-02-21T07:49:59.412Z,73.52
2019-02-21T07:52:34.966Z,72.05
2019-02-21T07:55:10.631Z,71.22
2019-02-21T07:57:47.087Z,70.75
2019-02-21T08:00:23.738Z,69.05
2019-02-21T08:02:58.763Z,70.72
2019-02-21T08:05:33.748Z,71.25
2019-02-21T08:08:10.930Z,69.65
2019-02-21T08:10:47.050Z,68.87
2019-02-21T08:13:22.398Z,71.07
2019-02-21T08:15:57.027Z,74.27
2019-02-21T08:18:32.366Z,71.00
2019-02-21T08:21:07.243Z,70.32
2019-02-21T08:23:50.053Z,70.03
2019-02-21T08:26:20.109Z,69.53
2019-02-21T08:28:55.558Z,69.80
2019-02-21T08:31:31.201Z,66.17
2019-02-21T08:34:09.683Z,67.70
2019-02-21T08:36:44.388Z,66.00
2019-02-21T08:39:18.758Z,67.42
2019-02-21T08:41:55.186Z,67.58
2019-02-21T08:44:29.879Z,66.33
2019-02-21T08:47:04.537Z,66.00
2019-02-21T08:49:39.022Z,65.75
2019-02-21T08:52:13.501Z,65.17
2019-02-21T08:54:59.624Z,63.87
2019-02-21T08:57:24.682Z,65.00
2019-02-21T08:59:59.417Z,64.35
2019-02-21T09:02:35.924Z,65.22
2019-02-21T09:05:10.577Z,64.20
2019-02-21T09:07:46.583Z,64.07
2019-02-21T09:10:21.347Z,63.35
2019-02-21T09:12:55.790Z,64.55
2019-02-21T09:15:30.455Z,62.53
2019-02-21T09:18:04.981Z,65.42
2019-02-21T09:20:39.896Z,59.95
2019-02-21T09:23:15.866Z,61.28
2019-02-21T09:25:50.662Z,61.13
2019-02-21T09:28:25.321Z,62.08
2019-02-21T09:31:00.061Z,59.93
2019-02-21T09:33:37.245Z,60.43
2019-02-21T09:36:12.082Z,62.03
2019-02-21T09:38:46.357Z,62.73
2019-02-21T09:41:20.747Z,60.78
2019-02-21T09:43:55.119Z,58.65
2019-02-21T09:46:29.422Z,57.73
2019-02-21T09:49:03.916Z,57.90
2019-02-21T09:51:38.189Z,56.53
2019-02-21T09:54:12.627Z,58.35
2019-02-21T09:56:52.798Z,57.62
2019-02-21T09:59:23.732Z,56.92
2019-02-21T10:01:57.899Z,57.13
2019-02-21T10:04:32.618Z,56.92
2019-02-21T10:07:07.163Z,57.23
2019-02-21T10:09:41.613Z,56.92
2019-02-21T10:12:15.923Z,54.60
2019-02-21T10:14:54.777Z,56.05
2019-02-21T10:17:29.097Z,56.00
2019-02-21T10:20:04.249Z,57.20
2019-02-21T10:22:38.432Z,55.78
2019-02-21T10:25:19.399Z,55.48
2019-02-21T10:27:53.635Z,53.90
2019-02-21T10:30:27.895Z,53.73
2019-02-21T10:33:02.346Z,53.45
2019-02-21T10:35:37.060Z,54.45
2019-02-21T10:38:11.448Z,51.60
2019-02-21T10:40:46.570Z,51.50
2019-02-21T10:43:20.954Z,50.52
2019-02-21T10:45:55.088Z,50.17
2019-02-21T10:48:29.477Z,50.90
2019-02-21T10:51:03.781Z,49.98
2019-02-21T10:53:37.903Z,50.40
2019-02-21T10:56:12.300Z,50.05
2019-02-21T10:58:46.428Z,48.83
2019-02-21T11:01:20.732Z,49.10
2019-02-21T11:03:55.031Z,49.05
2019-02-21T11:06:29.404Z,49.35
2019-02-21T11:09:04.143Z,48.85
2019-02-21T11:11:38.744Z,47.38
2019-02-21T11:14:13.171Z,48.33
2019-02-21T11:16:48.473Z,46.63
2019-02-21T11:19:22.819Z,46.37
2019-02-21T11:21:56.980Z,47.58
2019-02-21T11:24:31.250Z,44.95
2019-02-21T11:27:06.617Z,44.53
2019-02-21T11:29:40.909Z,44.42
2019-02-21T11:32:15.345Z,43.83
2019-02-21T11:34:49.797Z,43.23
2019-02-21T11:37:24.117Z,43.17
2019-02-21T11:39:58.372Z,42.08
2019-02-21T11:42:32.773Z,42.30
2019-02-21T11:45:07.493Z,41.80
2019-02-21T11:47:41.782Z,41.35
2019-02-21T11:50:18.235Z,40.45
2019-02-21T11:52:53.206Z,41.75
2019-02-21T11:55:27.735Z,40.60
2019-02-21T11:58:01.883Z,39.90
2019-02-21T12:00:36.469Z,39.85
2019-02-21T12:03:10.647Z,39.90
2019-02-21T12:05:44.973Z,39.67
2019-02-21T12:08:19.204Z,37.70
2019-02-21T12:10:53.470Z,38.48
2019-02-21T12:13:28.631Z,37.55
2019-02-21T12:16:04.501Z,37.88
2019-02-21T12:18:38.856Z,38.33
2019-02-21T12:21:13.318Z,36.83
2019-02-21T12:23:47.698Z,36.00
2019-02-21T12:26:21.957Z,36.48
2019-02-21T12:28:56.394Z,36.13
2019-02-21T12:31:30.615Z,35.48
2019-02-21T12:34:04.708Z,36.40
2019-02-21T12:36:39.263Z,34.85
2019-02-21T12:39:13.769Z,35.17
2019-02-21T12:41:48.166Z,35.45
2019-02-21T12:44:22.467Z,35.70
2019-02-21T12:46:56.677Z,35.05
2019-02-21T12:49:32.723Z,35.35
2019-02-21T12:52:08.206Z,35.80
2019-02-21T12:54:43.606Z,35.25
2019-02-21T12:57:18.318Z,33.92
2019-02-21T12:59:52.640Z,34.25
2019-02-21T13:02:28.070Z,33.98
2019-02-21T13:05:02.662Z,33.13
2019-02-21T13:07:36.846Z,32.75
2019-02-21T13:10:13.687Z,33.75
2019-02-21T13:12:48.097Z,34.65
2019-02-21T13:15:22.671Z,35.03
2019-02-21T13:17:57.250Z,36.53
2019-02-21T13:20:31.728Z,35.17
2019-02-21T13:23:06.167Z,35.13
2019-02-21T13:25:40.678Z,34.55
2019-02-21T13:28:14.998Z,34.05
2019-02-21T13:30:49.637Z,34.35
2019-02-21T13:33:24.146Z,35.65
2019-02-21T13:35:58.611Z,35.03
2019-02-21T13:38:33.274Z,38.08
2019-02-21T13:41:07.735Z,36.75
2019-02-21T13:43:42.083Z,36.73
2019-02-21T13:46:18.684Z,38.05
2019-02-21T13:49:01.307Z,36.60
2019-02-21T13:54:08.060Z,37.55
2019-02-21T13:56:42.575Z,35.98
2019-02-21T13:59:16.588Z,35.92
2019-02-21T14:01:50.793Z,34.53
2019-02-21T14:04:25.189Z,34.40
2019-02-21T14:06:59.563Z,35.28
2019-02-21T14:09:33.831Z,33.63
2019-02-21T14:12:08.181Z,33.67
2019-02-21T14:14:42.668Z,33.20
2019-02-21T14:17:17.180Z,32.00
2019-02-21T14:19:53.057Z,34.23
2019-02-21T14:22:27.687Z,32.42
2019-02-21T14:25:02.044Z,32.10
2019-02-21T14:27:36.307Z,33.53
2019-02-21T14:30:12.227Z,31.77
2019-02-21T14:32:46.622Z,32.88
2019-02-21T14:35:21.036Z,32.15
2019-02-21T14:37:55.322Z,32.78
2019-02-21T14:40:29.598Z,32.65
2019-02-21T14:43:03.851Z,31.90
2019-02-21T14:45:38.160Z,32.00
2019-02-21T14:48:12.510Z,32.33
2019-02-21T14:50:47.337Z,31.80
2019-02-21T14:53:22.590Z,33.15
2019-02-21T14:55:57.077Z,33.05
2019-02-21T14:58:31.261Z,32.05
2019-02-21T15:01:06.541Z,33.70
2019-02-21T15:03:40.701Z,34.00
2019-02-21T15:06:26.526Z,33.67
2019-02-21T15:08:51.517Z,33.67
2019-02-21T15:11:25.819Z,33.70
2019-02-21T15:13:59.931Z,32.65
2019-02-21T15:16:34.303Z,32.80
2019-02-21T15:19:08.596Z,33.63
2019-02-21T15:21:43.503Z,34.65
2019-02-21T15:24:18.013Z,33.75
2019-02-21T15:26:52.182Z,34.18
2019-02-21T15:29:26.525Z,33.00
2019-02-21T15:32:10.633Z,34.80
2019-02-21T15:34:37.316Z,35.58
2019-02-21T15:37:11.369Z,34.90
2019-02-21T15:39:45.721Z,34.85
2019-02-21T15:42:20.237Z,36.48
2019-02-21T15:44:54.543Z,34.35
2019-02-21T15:47:28.912Z,33.33
2019-02-21T15:50:03.167Z,33.28
2019-02-21T15:52:37.780Z,31.85
2019-02-21T15:55:13.302Z,31.65
2019-02-21T15:57:48.139Z,28.02
2019-02-21T16:00:22.826Z,28.55
2019-02-21T16:02:57.046Z,27.85
2019-02-21T16:05:31.304Z,24.77
2019-02-21T16:08:05.478Z,24.10
2019-02-21T16:10:40.020Z,22.62
2019-02-21T16:13:14.804Z,21.20
2019-02-21T16:15:49.600Z,21.27
2019-02-21T16:18:23.538Z,20.32
2019-02-21T16:20:57.841Z,20.23
2019-02-21T16:23:32.038Z,18.75
2019-02-21T16:26:06.140Z,18.52
2019-02-21T16:28:40.455Z,18.07
2019-02-21T16:31:14.915Z,16.90
2019-02-21T16:33:49.418Z,16.52
2019-02-21T16:36:23.710Z,16.65
2019-02-21T16:38:58.249Z,16.73
2019-02-21T16:41:36.369Z,16.70
2019-02-21T16:44:08.396Z,17.15
2019-02-21T16:46:42.938Z,19.67
2019-02-21T16:49:17.107Z,20.85
2019-02-21T16:51:51.419Z,20.48
2019-02-21T16:54:25.938Z,20.43
2019-02-21T16:57:00.271Z,20.20
2019-02-21T16:59:34.637Z,19.67
2019-02-21T17:02:08.955Z,20.70
2019-02-21T17:04:43.374Z,21.42
2019-02-21T17:07:20.230Z,25.17
2019-02-21T17:09:53.667Z,25.08
2019-02-21T17:12:27.909Z,24.72
2019-02-21T17:15:02.567Z,24.52
2019-02-21T17:17:38.185Z,23.05
2019-02-21T17:20:13.990Z,23.02
2019-02-21T17:22:48.471Z,21.42
2019-02-21T17:25:22.884Z,21.77
2019-02-21T17:27:57.415Z,21.77
2019-02-21T17:30:31.684Z,21.37
2019-02-21T17:33:05.973Z,21.25
2019-02-21T17:35:40.157Z,20.12
2019-02-21T17:38:14.680Z,19.95
2019-02-21T17:40:49.166Z,20.20
2019-02-21T17:43:24.490Z,19.80
2019-02-21T17:45:58.731Z,19.27
2019-02-21T17:48:32.967Z,18.98
2019-02-21T17:51:07.353Z,19.57
2019-02-21T17:53:41.440Z,18.77
2019-02-21T17:56:15.756Z,17.98
2019-02-21T17:58:50.330Z,20.15
2019-02-21T18:01:25.573Z,22.07
2019-02-21T18:04:00.595Z,20.43
2019-02-21T18:06:34.783Z,20.80
2019-02-21T18:09:09.494Z,20.30
2019-02-21T18:11:44.470Z,20.68
2019-02-21T18:14:18.778Z,20.02
2019-02-21T18:16:53.170Z,20.17
2019-02-21T18:19:27.818Z,21.87
2019-02-21T18:22:01.912Z,21.30
2019-02-21T18:24:36.385Z,21.07
2019-02-21T18:27:10.641Z,20.08
2019-02-21T18:29:45.072Z,19.87
2019-02-21T18:32:20.462Z,19.23
2019-02-21T18:34:54.932Z,18.92
2019-02-21T18:37:29.457Z,18.70
2019-02-21T18:40:03.929Z,18.50
2019-02-21T18:42:38.532Z,17.73
2019-02-21T18:45:12.879Z,17.90
2019-02-21T18:47:47.424Z,17.42
2019-02-21T18:50:21.703Z,17.48
2019-02-21T18:52:56.051Z,16.27
2019-02-21T18:55:30.272Z,16.15
2019-02-21T18:58:04.845Z,15.83
2019-02-21T19:00:39.166Z,15.45
2019-02-21T19:03:13.521Z,15.63
2019-02-21T19:05:47.970Z,16.12
2019-02-21T19:08:22.868Z,15.98
2019-02-21T19:10:58.219Z,14.95
2019-02-21T19:13:32.533Z,14.68
2019-02-21T19:16:08.113Z,15.45
2019-02-21T19:18:42.582Z,14.80
2019-02-21T19:21:17.042Z,13.93
2019-02-21T19:23:51.197Z,14.00
2019-02-21T19:26:25.669Z,14.05
2019-02-21T19:29:00.042Z,13.93
2019-02-21T19:31:34.635Z,13.43
2019-02-21T19:34:09.981Z,13.62
2019-02-21T19:36:44.266Z,13.05
2019-02-21T19:39:18.797Z,13.20
2019-02-21T19:41:52.957Z,13.20
2019-02-21T19:44:27.354Z,12.45
2019-02-21T19:47:01.574Z,13.20
2019-02-21T19:49:35.882Z,12.78
2019-02-21T19:52:10.170Z,12.55
2019-02-21T19:54:44.639Z,12.30
2019-02-21T19:57:18.994Z,12.37
2019-02-21T19:59:53.435Z,12.13
2019-02-21T20:02:27.925Z,12.20
2019-02-21T20:05:02.401Z,13.10
2019-02-21T20:07:36.500Z,12.00
2019-02-21T20:10:10.909Z,11.73
2019-02-21T20:12:45.323Z,12.13
2019-02-21T20:15:19.759Z,11.53
2019-02-21T20:17:54.130Z,11.30
2019-02-21T20:20:28.449Z,11.33
2019-02-21T20:23:02.748Z,11.70
2019-02-21T20:25:37.180Z,11.93
2019-02-21T20:28:11.668Z,11.70
2019-02-21T20:30:45.958Z,11.15
2019-02-21T20:33:20.471Z,11.97
2019-02-21T20:35:54.548Z,10.90
2019-02-21T20:38:32.174Z,11.08
2019-02-21T20:41:05.289Z,10.35
2019-02-21T20:43:39.777Z,11.25
2019-02-21T20:46:14.239Z,10.32
2019-02-21T20:48:48.679Z,11.12
2019-02-21T20:51:22.883Z,10.65
2019-02-21T20:53:57.466Z,10.72
2019-02-21T20:56:32.768Z,10.30
2019-02-21T20:59:08.034Z,10.68
2019-02-21T21:01:42.229Z,10.45
2019-02-21T21:04:16.456Z,10.20
2019-02-21T21:06:50.844Z,10.23
2019-02-21T21:09:25.281Z,10.23
2019-02-21T21:11:59.700Z,10.05
2019-02-21T21:14:33.981Z,9.78
2019-02-21T21:17:08.288Z,9.78
2019-02-21T21:19:42.901Z,10.32
2019-02-21T21:22:17.176Z,9.70
2019-02-21T21:24:51.279Z,9.88
2019-02-21T21:27:25.606Z,9.88
2019-02-21T21:29:59.977Z,9.53
2019-02-21T21:32:34.391Z,9.78
2019-02-21T21:35:09.037Z,10.28
2019-02-21T21:37:44.530Z,9.98
2019-02-21T21:40:18.908Z,9.68
2019-02-21T21:42:53.303Z,9.90
2019-02-21T21:45:27.916Z,10.50
2019-02-21T21:48:02.005Z,10.40
2019-02-21T21:50:36.442Z,9.70
2019-02-21T21:53:11.817Z,9.83
2019-02-21T21:55:45.880Z,9.95
2019-02-21T21:58:20.093Z,9.48
2019-02-21T22:00:54.227Z,9.68
2019-02-21T22:03:28.609Z,9.70
2019-02-21T22:06:02.801Z,9.73
2019-02-21T22:08:36.972Z,9.65
2019-02-21T22:11:11.140Z,9.98
2019-02-21T22:13:45.354Z,10.48
2019-02-21T22:16:19.405Z,11.33
2019-02-21T22:18:53.669Z,10.60
2019-02-21T22:21:28.711Z,10.03
2019-02-21T22:24:03.128Z,11.05
2019-02-21T22:26:37.422Z,10.25
2019-02-21T22:29:11.728Z,10.18
2019-02-21T22:31:45.922Z,10.35
2019-02-21T22:34:20.179Z,9.93
2019-02-21T22:36:54.339Z,9.58
2019-02-21T22:39:28.416Z,10.10
2019-02-21T22:42:02.550Z,9.33
2019-02-21T22:44:36.593Z,9.80
2019-02-21T22:47:10.875Z,9.75
2019-02-21T22:49:45.211Z,9.95
2019-02-21T22:52:19.315Z,10.18
2019-02-21T22:54:54.548Z,9.30
2019-02-21T22:57:28.657Z,9.83
2019-02-21T23:00:02.857Z,9.55
2019-02-21T23:02:39.131Z,9.70
2019-02-21T23:05:42.533Z,11.15
2019-02-21T23:09:10.174Z,11.55
2019-02-21T23:11:44.728Z,12.47
2019-02-21T23:14:19.541Z,12.20
2019-02-21T23:16:54.039Z,12.70
2019-02-21T23:19:27.982Z,12.75
2019-02-21T23:22:02.308Z,12.90
2019-02-21T23:24:36.862Z,12.73
2019-02-21T23:27:11.072Z,12.85
2019-02-21T23:29:46.421Z,12.65
2019-02-21T23:32:20.728Z,12.93
2019-02-21T23:34:56.376Z,12.15
2019-02-21T23:37:30.739Z,15.58
2019-02-21T23:40:05.190Z,15.10
2019-02-21T23:42:39.819Z,20.48
2019-02-21T23:45:15.267Z,22.30
2019-02-21T23:47:50.160Z,22.13
2019-02-21T23:50:24.772Z,22.07
2019-02-21T23:52:59.005Z,19.80
2019-02-21T23:55:33.336Z,19.17
2019-02-21T23:58:07.851Z,20.30
